sensor_id;sensor_type;location;lat;lon;timestamp;P1;durP1;ratioP1;P2;durP2;ratioP2
14584;SDS011;7379;51.506;11.876;2022-07-04T00:00:44;3.25;;;1.90;;
14584;SDS011;7379;51.506;11.876;2022-07-04T00:03:11;3.17;;;1.98;;
14584;SDS011;7379;51.506;11.876;2022-07-04T00:05:38;3.65;;;2.03;;
14584;SDS011;7379;51.506;11.876;2022-07-04T00:08:05;2.67;;;2.10;;
14584;SDS011;7379;51.506;11.876;2022-07-04T00:10:32;2.17;;;1.85;;
14584;SDS011;7379;51.506;11.876;2022-07-04T00:12:59;2.22;;;1.80;;
14584;SDS011;7379;51.506;11.876;2022-07-04T00:15:27;4.00;;;2.03;;
14584;SDS011;7379;51.506;11.876;2022-07-04T00:17:54;2.75;;;1.77;;
14584;SDS011;7379;51.506;11.876;2022-07-04T00:20:20;3.08;;;1.90;;
14584;SDS011;7379;51.506;11.876;2022-07-04T00:22:47;2.25;;;2.00;;
14584;SDS011;7379;51.506;11.876;2022-07-04T00:25:14;3.70;;;2.05;;
14584;SDS011;7379;51.506;11.876;2022-07-04T00:27:41;3.95;;;2.20;;
14584;SDS011;7379;51.506;11.876;2022-07-04T00:30:08;2.92;;;2.13;;
14584;SDS011;7379;51.506;11.876;2022-07-04T00:32:36;2.60;;;2.10;;
14584;SDS011;7379;51.506;11.876;2022-07-04T00:35:04;3.13;;;1.98;;
14584;SDS011;7379;51.506;11.876;2022-07-04T00:37:32;3.28;;;2.00;;
14584;SDS011;7379;51.506;11.876;2022-07-04T00:39:59;2.47;;;2.05;;
14584;SDS011;7379;51.506;11.876;2022-07-04T00:42:26;3.92;;;2.20;;
14584;SDS011;7379;51.506;11.876;2022-07-04T00:44:52;3.38;;;2.28;;
14584;SDS011;7379;51.506;11.876;2022-07-04T00:47:19;3.88;;;2.25;;
14584;SDS011;7379;51.506;11.876;2022-07-04T00:49:47;2.50;;;1.95;;
14584;SDS011;7379;51.506;11.876;2022-07-04T00:52:14;3.17;;;2.00;;
14584;SDS011;7379;51.506;11.876;2022-07-04T00:54:43;3.40;;;2.08;;
14584;SDS011;7379;51.506;11.876;2022-07-04T00:57:11;5.15;;;2.13;;
14584;SDS011;7379;51.506;11.876;2022-07-04T00:59:38;3.20;;;2.30;;
14584;SDS011;7379;51.506;11.876;2022-07-04T01:02:04;2.33;;;2.10;;
14584;SDS011;7379;51.506;11.876;2022-07-04T01:04:33;4.05;;;2.10;;
14584;SDS011;7379;51.506;11.876;2022-07-04T01:07:01;4.13;;;1.95;;
14584;SDS011;7379;51.506;11.876;2022-07-04T01:09:29;2.20;;;1.92;;
14584;SDS011;7379;51.506;11.876;2022-07-04T01:11:55;3.10;;;2.10;;
14584;SDS011;7379;51.506;11.876;2022-07-04T01:14:22;2.15;;;1.80;;
14584;SDS011;7379;51.506;11.876;2022-07-04T01:16:49;3.08;;;2.10;;
14584;SDS011;7379;51.506;11.876;2022-07-04T01:19:16;2.38;;;2.03;;
14584;SDS011;7379;51.506;11.876;2022-07-04T01:21:44;3.80;;;2.00;;
14584;SDS011;7379;51.506;11.876;2022-07-04T01:24:10;2.80;;;1.95;;
14584;SDS011;7379;51.506;11.876;2022-07-04T01:26:38;2.25;;;2.05;;
14584;SDS011;7379;51.506;11.876;2022-07-04T01:29:05;2.92;;;2.10;;
14584;SDS011;7379;51.506;11.876;2022-07-04T01:31:32;3.58;;;2.20;;
14584;SDS011;7379;51.506;11.876;2022-07-04T01:33:58;3.55;;;2.05;;
14584;SDS011;7379;51.506;11.876;2022-07-04T01:36:25;3.83;;;2.35;;
14584;SDS011;7379;51.506;11.876;2022-07-04T01:38:53;3.90;;;1.98;;
14584;SDS011;7379;51.506;11.876;2022-07-04T01:41:21;2.30;;;2.10;;
14584;SDS011;7379;51.506;11.876;2022-07-04T01:43:48;3.08;;;2.08;;
14584;SDS011;7379;51.506;11.876;2022-07-04T01:46:14;2.22;;;1.92;;
14584;SDS011;7379;51.506;11.876;2022-07-04T01:48:41;3.70;;;1.98;;
14584;SDS011;7379;51.506;11.876;2022-07-04T01:51:08;3.00;;;2.13;;
14584;SDS011;7379;51.506;11.876;2022-07-04T01:53:35;3.22;;;2.03;;
14584;SDS011;7379;51.506;11.876;2022-07-04T01:56:04;2.65;;;2.10;;
14584;SDS011;7379;51.506;11.876;2022-07-04T01:58:31;3.47;;;2.00;;
14584;SDS011;7379;51.506;11.876;2022-07-04T02:00:58;2.28;;;2.08;;
14584;SDS011;7379;51.506;11.876;2022-07-04T02:03:42;2.97;;;2.00;;
14584;SDS011;7379;51.506;11.876;2022-07-04T02:06:10;2.10;;;1.90;;
14584;SDS011;7379;51.506;11.876;2022-07-04T02:08:37;2.55;;;1.90;;
14584;SDS011;7379;51.506;11.876;2022-07-04T02:11:22;2.20;;;1.70;;
14584;SDS011;7379;51.506;11.876;2022-07-04T02:13:49;3.70;;;2.10;;
14584;SDS011;7379;51.506;11.876;2022-07-04T02:16:15;2.45;;;1.80;;
14584;SDS011;7379;51.506;11.876;2022-07-04T02:18:42;2.25;;;2.00;;
14584;SDS011;7379;51.506;11.876;2022-07-04T02:21:09;3.13;;;2.03;;
14584;SDS011;7379;51.506;11.876;2022-07-04T02:23:44;3.35;;;1.70;;
14584;SDS011;7379;51.506;11.876;2022-07-04T02:26:11;1.80;;;1.70;;
14584;SDS011;7379;51.506;11.876;2022-07-04T02:28:39;2.92;;;1.80;;
14584;SDS011;7379;51.506;11.876;2022-07-04T02:31:06;2.05;;;1.70;;
14584;SDS011;7379;51.506;11.876;2022-07-04T02:33:32;1.90;;;1.70;;
14584;SDS011;7379;51.506;11.876;2022-07-04T02:35:59;2.45;;;1.70;;
14584;SDS011;7379;51.506;11.876;2022-07-04T02:38:26;2.40;;;1.60;;
14584;SDS011;7379;51.506;11.876;2022-07-04T02:40:53;2.60;;;1.80;;
14584;SDS011;7379;51.506;11.876;2022-07-04T02:43:19;2.33;;;1.70;;
14584;SDS011;7379;51.506;11.876;2022-07-04T02:45:47;1.80;;;1.70;;
14584;SDS011;7379;51.506;11.876;2022-07-04T02:48:14;2.30;;;1.83;;
14584;SDS011;7379;51.506;11.876;2022-07-04T02:50:41;1.98;;;1.60;;
14584;SDS011;7379;51.506;11.876;2022-07-04T02:53:08;2.53;;;1.80;;
14584;SDS011;7379;51.506;11.876;2022-07-04T02:55:35;3.08;;;1.80;;
14584;SDS011;7379;51.506;11.876;2022-07-04T02:58:01;2.13;;;1.80;;
14584;SDS011;7379;51.506;11.876;2022-07-04T03:00:28;1.90;;;1.45;;
14584;SDS011;7379;51.506;11.876;2022-07-04T03:02:56;1.90;;;1.60;;
14584;SDS011;7379;51.506;11.876;2022-07-04T03:05:23;3.58;;;1.70;;
14584;SDS011;7379;51.506;11.876;2022-07-04T03:07:50;1.70;;;1.60;;
14584;SDS011;7379;51.506;11.876;2022-07-04T03:10:17;2.10;;;1.73;;
14584;SDS011;7379;51.506;11.876;2022-07-04T03:12:44;1.88;;;1.70;;
14584;SDS011;7379;51.506;11.876;2022-07-04T03:15:11;2.03;;;1.70;;
14584;SDS011;7379;51.506;11.876;2022-07-04T03:17:38;2.17;;;1.73;;
14584;SDS011;7379;51.506;11.876;2022-07-04T03:20:07;4.13;;;1.80;;
14584;SDS011;7379;51.506;11.876;2022-07-04T03:22:34;2.05;;;1.50;;
14584;SDS011;7379;51.506;11.876;2022-07-04T03:25:01;2.10;;;1.90;;
14584;SDS011;7379;51.506;11.876;2022-07-04T03:27:28;2.95;;;1.63;;
14584;SDS011;7379;51.506;11.876;2022-07-04T03:29:54;2.58;;;1.63;;
14584;SDS011;7379;51.506;11.876;2022-07-04T03:32:21;2.33;;;1.60;;
14584;SDS011;7379;51.506;11.876;2022-07-04T03:34:48;2.38;;;1.77;;
14584;SDS011;7379;51.506;11.876;2022-07-04T03:37:16;1.80;;;1.50;;
14584;SDS011;7379;51.506;11.876;2022-07-04T03:39:43;2.33;;;1.67;;
14584;SDS011;7379;51.506;11.876;2022-07-04T03:42:10;2.30;;;1.80;;
14584;SDS011;7379;51.506;11.876;2022-07-04T03:44:36;2.28;;;1.67;;
14584;SDS011;7379;51.506;11.876;2022-07-04T03:47:03;2.13;;;1.60;;
14584;SDS011;7379;51.506;11.876;2022-07-04T03:49:30;2.28;;;1.75;;
14584;SDS011;7379;51.506;11.876;2022-07-04T03:51:57;2.72;;;1.60;;
14584;SDS011;7379;51.506;11.876;2022-07-04T03:54:25;3.65;;;1.73;;
14584;SDS011;7379;51.506;11.876;2022-07-04T03:56:53;1.70;;;1.60;;
14584;SDS011;7379;51.506;11.876;2022-07-04T03:59:20;2.10;;;1.60;;
14584;SDS011;7379;51.506;11.876;2022-07-04T04:01:47;2.42;;;1.60;;
14584;SDS011;7379;51.506;11.876;2022-07-04T04:04:14;2.92;;;1.60;;
14584;SDS011;7379;51.506;11.876;2022-07-04T04:06:58;1.83;;;1.50;;
14584;SDS011;7379;51.506;11.876;2022-07-04T04:09:26;3.45;;;1.80;;
14584;SDS011;7379;51.506;11.876;2022-07-04T04:11:53;1.88;;;1.60;;
14584;SDS011;7379;51.506;11.876;2022-07-04T04:14:19;2.00;;;1.60;;
14584;SDS011;7379;51.506;11.876;2022-07-04T04:16:46;2.45;;;1.70;;
14584;SDS011;7379;51.506;11.876;2022-07-04T04:19:13;2.72;;;1.50;;
14584;SDS011;7379;51.506;11.876;2022-07-04T04:21:40;2.22;;;1.80;;
14584;SDS011;7379;51.506;11.876;2022-07-04T04:24:07;2.05;;;1.50;;
14584;SDS011;7379;51.506;11.876;2022-07-04T04:26:35;3.42;;;1.70;;
14584;SDS011;7379;51.506;11.876;2022-07-04T04:29:02;1.92;;;1.65;;
14584;SDS011;7379;51.506;11.876;2022-07-04T04:31:29;3.42;;;1.90;;
14584;SDS011;7379;51.506;11.876;2022-07-04T04:33:56;2.20;;;1.60;;
14584;SDS011;7379;51.506;11.876;2022-07-04T04:36:23;1.83;;;1.55;;
14584;SDS011;7379;51.506;11.876;2022-07-04T04:38:50;2.25;;;1.60;;
14584;SDS011;7379;51.506;11.876;2022-07-04T04:41:17;1.77;;;1.60;;
14584;SDS011;7379;51.506;11.876;2022-07-04T04:43:45;2.05;;;1.50;;
14584;SDS011;7379;51.506;11.876;2022-07-04T04:46:12;1.95;;;1.60;;
14584;SDS011;7379;51.506;11.876;2022-07-04T04:48:39;2.42;;;1.48;;
14584;SDS011;7379;51.506;11.876;2022-07-04T04:51:06;2.58;;;1.50;;
14584;SDS011;7379;51.506;11.876;2022-07-04T04:53:32;2.35;;;1.70;;
14584;SDS011;7379;51.506;11.876;2022-07-04T04:55:59;1.80;;;1.60;;
14584;SDS011;7379;51.506;11.876;2022-07-04T04:58:26;1.65;;;1.50;;
14584;SDS011;7379;51.506;11.876;2022-07-04T05:00:54;2.40;;;1.70;;
14584;SDS011;7379;51.506;11.876;2022-07-04T05:03:21;3.30;;;1.40;;
14584;SDS011;7379;51.506;11.876;2022-07-04T05:05:47;2.55;;;1.63;;
14584;SDS011;7379;51.506;11.876;2022-07-04T05:08:14;2.95;;;1.73;;
14584;SDS011;7379;51.506;11.876;2022-07-04T05:10:41;1.40;;;1.30;;
14584;SDS011;7379;51.506;11.876;2022-07-04T05:13:08;1.75;;;1.48;;
14584;SDS011;7379;51.506;11.876;2022-07-04T05:15:35;2.67;;;1.40;;
14584;SDS011;7379;51.506;11.876;2022-07-04T05:18:03;2.10;;;1.45;;
14584;SDS011;7379;51.506;11.876;2022-07-04T05:20:29;2.67;;;1.55;;
14584;SDS011;7379;51.506;11.876;2022-07-04T05:22:57;2.42;;;1.60;;
14584;SDS011;7379;51.506;11.876;2022-07-04T05:25:24;1.55;;;1.30;;
14584;SDS011;7379;51.506;11.876;2022-07-04T05:27:51;2.08;;;1.50;;
14584;SDS011;7379;51.506;11.876;2022-07-04T05:30:18;1.40;;;1.30;;
14584;SDS011;7379;51.506;11.876;2022-07-04T05:32:45;1.90;;;1.55;;
14584;SDS011;7379;51.506;11.876;2022-07-04T05:35:13;1.88;;;1.52;;
14584;SDS011;7379;51.506;11.876;2022-07-04T05:37:40;2.70;;;1.50;;
14584;SDS011;7379;51.506;11.876;2022-07-04T05:40:07;2.47;;;1.58;;
14584;SDS011;7379;51.506;11.876;2022-07-04T05:42:35;2.13;;;1.38;;
14584;SDS011;7379;51.506;11.876;2022-07-04T05:45:02;2.58;;;1.63;;
14584;SDS011;7379;51.506;11.876;2022-07-04T05:47:29;1.58;;;1.48;;
14584;SDS011;7379;51.506;11.876;2022-07-04T05:49:56;2.08;;;1.45;;
14584;SDS011;7379;51.506;11.876;2022-07-04T05:52:26;1.60;;;1.40;;
14584;SDS011;7379;51.506;11.876;2022-07-04T05:54:53;1.85;;;1.40;;
14584;SDS011;7379;51.506;11.876;2022-07-04T05:57:20;2.17;;;1.65;;
14584;SDS011;7379;51.506;11.876;2022-07-04T05:59:46;2.83;;;1.55;;
14584;SDS011;7379;51.506;11.876;2022-07-04T06:02:13;1.50;;;1.40;;
14584;SDS011;7379;51.506;11.876;2022-07-04T06:04:40;2.35;;;1.40;;
14584;SDS011;7379;51.506;11.876;2022-07-04T06:07:08;1.45;;;1.35;;
14584;SDS011;7379;51.506;11.876;2022-07-04T06:09:36;1.98;;;1.35;;
14584;SDS011;7379;51.506;11.876;2022-07-04T06:12:03;2.15;;;1.33;;
14584;SDS011;7379;51.506;11.876;2022-07-04T06:14:30;1.35;;;1.25;;
14584;SDS011;7379;51.506;11.876;2022-07-04T06:16:57;1.33;;;1.23;;
14584;SDS011;7379;51.506;11.876;2022-07-04T06:19:24;1.52;;;1.33;;
14584;SDS011;7379;51.506;11.876;2022-07-04T06:21:51;1.60;;;1.50;;
14584;SDS011;7379;51.506;11.876;2022-07-04T06:24:17;3.42;;;1.48;;
14584;SDS011;7379;51.506;11.876;2022-07-04T06:26:46;1.83;;;1.38;;
14584;SDS011;7379;51.506;11.876;2022-07-04T06:29:13;2.13;;;1.40;;
14584;SDS011;7379;51.506;11.876;2022-07-04T06:31:39;1.42;;;1.30;;
14584;SDS011;7379;51.506;11.876;2022-07-04T06:34:06;2.20;;;1.52;;
14584;SDS011;7379;51.506;11.876;2022-07-04T06:36:51;2.42;;;1.65;;
14584;SDS011;7379;51.506;11.876;2022-07-04T06:39:17;2.40;;;1.70;;
14584;SDS011;7379;51.506;11.876;2022-07-04T06:41:46;2.83;;;1.52;;
14584;SDS011;7379;51.506;11.876;2022-07-04T06:44:12;1.30;;;1.20;;
14584;SDS011;7379;51.506;11.876;2022-07-04T06:46:39;2.35;;;1.52;;
14584;SDS011;7379;51.506;11.876;2022-07-04T06:49:06;2.72;;;1.27;;
14584;SDS011;7379;51.506;11.876;2022-07-04T06:51:33;2.17;;;1.40;;
14584;SDS011;7379;51.506;11.876;2022-07-04T06:53:59;2.17;;;1.70;;
14584;SDS011;7379;51.506;11.876;2022-07-04T06:56:26;3.63;;;1.70;;
14584;SDS011;7379;51.506;11.876;2022-07-04T06:58:54;2.72;;;1.65;;
14584;SDS011;7379;51.506;11.876;2022-07-04T07:01:21;2.03;;;1.60;;
14584;SDS011;7379;51.506;11.876;2022-07-04T07:03:48;2.25;;;1.40;;
14584;SDS011;7379;51.506;11.876;2022-07-04T07:06:15;2.78;;;1.75;;
14584;SDS011;7379;51.506;11.876;2022-07-04T07:08:42;2.60;;;1.50;;
14584;SDS011;7379;51.506;11.876;2022-07-04T07:11:09;3.70;;;1.60;;
14584;SDS011;7379;51.506;11.876;2022-07-04T07:13:39;3.20;;;1.50;;
14584;SDS011;7379;51.506;11.876;2022-07-04T07:16:08;1.55;;;1.40;;
14584;SDS011;7379;51.506;11.876;2022-07-04T07:18:35;1.63;;;1.40;;
14584;SDS011;7379;51.506;11.876;2022-07-04T07:21:02;1.60;;;1.40;;
14584;SDS011;7379;51.506;11.876;2022-07-04T07:23:29;1.83;;;1.50;;
14584;SDS011;7379;51.506;11.876;2022-07-04T07:25:56;2.67;;;1.35;;
14584;SDS011;7379;51.506;11.876;2022-07-04T07:28:22;3.63;;;1.40;;
14584;SDS011;7379;51.506;11.876;2022-07-04T07:30:49;4.47;;;1.35;;
14584;SDS011;7379;51.506;11.876;2022-07-04T07:33:17;2.85;;;1.23;;
14584;SDS011;7379;51.506;11.876;2022-07-04T07:35:44;3.50;;;1.40;;
14584;SDS011;7379;51.506;11.876;2022-07-04T07:38:11;2.38;;;1.48;;
14584;SDS011;7379;51.506;11.876;2022-07-04T07:40:38;2.53;;;1.27;;
14584;SDS011;7379;51.506;11.876;2022-07-04T07:43:05;3.00;;;1.40;;
14584;SDS011;7379;51.506;11.876;2022-07-04T07:45:32;3.65;;;1.70;;
14584;SDS011;7379;51.506;11.876;2022-07-04T07:47:59;1.83;;;1.30;;
14584;SDS011;7379;51.506;11.876;2022-07-04T07:50:27;2.83;;;1.40;;
14584;SDS011;7379;51.506;11.876;2022-07-04T07:52:54;3.58;;;1.38;;
14584;SDS011;7379;51.506;11.876;2022-07-04T07:55:21;1.60;;;1.27;;
14584;SDS011;7379;51.506;11.876;2022-07-04T07:57:48;2.13;;;1.40;;
14584;SDS011;7379;51.506;11.876;2022-07-04T08:00:15;2.53;;;1.55;;
14584;SDS011;7379;51.506;11.876;2022-07-04T08:02:42;1.30;;;1.20;;
14584;SDS011;7379;51.506;11.876;2022-07-04T08:05:27;1.73;;;1.30;;
14584;SDS011;7379;51.506;11.876;2022-07-04T08:07:54;2.00;;;1.42;;
14584;SDS011;7379;51.506;11.876;2022-07-04T08:10:21;2.67;;;1.63;;
14584;SDS011;7379;51.506;11.876;2022-07-04T08:12:48;1.40;;;1.30;;
14584;SDS011;7379;51.506;11.876;2022-07-04T08:15:15;1.40;;;1.30;;
14584;SDS011;7379;51.506;11.876;2022-07-04T08:17:42;1.98;;;1.40;;
14584;SDS011;7379;51.506;11.876;2022-07-04T08:20:10;1.83;;;1.40;;
14584;SDS011;7379;51.506;11.876;2022-07-04T08:22:38;2.55;;;1.30;;
14584;SDS011;7379;51.506;11.876;2022-07-04T08:25:05;1.88;;;1.40;;
14584;SDS011;7379;51.506;11.876;2022-07-04T08:27:32;1.30;;;1.20;;
14584;SDS011;7379;51.506;11.876;2022-07-04T08:29:59;2.42;;;1.52;;
14584;SDS011;7379;51.506;11.876;2022-07-04T08:32:26;2.10;;;1.67;;
14584;SDS011;7379;51.506;11.876;2022-07-04T08:34:53;1.95;;;1.55;;
14584;SDS011;7379;51.506;11.876;2022-07-04T08:37:20;2.30;;;1.60;;
14584;SDS011;7379;51.506;11.876;2022-07-04T08:39:48;3.03;;;1.60;;
14584;SDS011;7379;51.506;11.876;2022-07-04T08:42:15;2.28;;;1.50;;
14584;SDS011;7379;51.506;11.876;2022-07-04T08:44:45;2.95;;;1.60;;
14584;SDS011;7379;51.506;11.876;2022-07-04T08:47:16;3.70;;;1.80;;
14584;SDS011;7379;51.506;11.876;2022-07-04T08:49:46;2.28;;;1.65;;
14584;SDS011;7379;51.506;11.876;2022-07-04T08:52:22;1.45;;;1.35;;
14584;SDS011;7379;51.506;11.876;2022-07-04T08:55:06;2.17;;;1.50;;
14584;SDS011;7379;51.506;11.876;2022-07-04T08:57:52;2.35;;;1.60;;
14584;SDS011;7379;51.506;11.876;2022-07-04T09:00:37;4.00;;;1.70;;
14584;SDS011;7379;51.506;11.876;2022-07-04T09:03:04;3.03;;;1.77;;
14584;SDS011;7379;51.506;11.876;2022-07-04T09:05:32;2.13;;;1.40;;
14584;SDS011;7379;51.506;11.876;2022-07-04T09:07:59;2.47;;;1.70;;
14584;SDS011;7379;51.506;11.876;2022-07-04T09:10:28;2.10;;;1.48;;
14584;SDS011;7379;51.506;11.876;2022-07-04T09:12:56;2.08;;;1.60;;
14584;SDS011;7379;51.506;11.876;2022-07-04T09:15:24;4.28;;;1.50;;
14584;SDS011;7379;51.506;11.876;2022-07-04T09:17:51;2.95;;;1.60;;
14584;SDS011;7379;51.506;11.876;2022-07-04T09:20:18;2.97;;;1.92;;
14584;SDS011;7379;51.506;11.876;2022-07-04T09:22:46;2.72;;;1.42;;
14584;SDS011;7379;51.506;11.876;2022-07-04T09:25:14;2.88;;;1.50;;
14584;SDS011;7379;51.506;11.876;2022-07-04T09:27:44;2.83;;;1.75;;
14584;SDS011;7379;51.506;11.876;2022-07-04T09:30:13;3.05;;;1.35;;
14584;SDS011;7379;51.506;11.876;2022-07-04T09:32:41;2.03;;;1.38;;
14584;SDS011;7379;51.506;11.876;2022-07-04T09:35:10;1.92;;;1.58;;
14584;SDS011;7379;51.506;11.876;2022-07-04T09:37:38;3.05;;;1.83;;
14584;SDS011;7379;51.506;11.876;2022-07-04T09:40:10;3.35;;;1.60;;
14584;SDS011;7379;51.506;11.876;2022-07-04T09:42:51;3.13;;;1.73;;
14584;SDS011;7379;51.506;11.876;2022-07-04T09:45:18;2.63;;;1.60;;
14584;SDS011;7379;51.506;11.876;2022-07-04T09:47:49;2.03;;;1.50;;
14584;SDS011;7379;51.506;11.876;2022-07-04T09:50:17;2.90;;;1.80;;
14584;SDS011;7379;51.506;11.876;2022-07-04T09:52:48;2.40;;;1.50;;
14584;SDS011;7379;51.506;11.876;2022-07-04T09:55:21;3.05;;;1.55;;
14584;SDS011;7379;51.506;11.876;2022-07-04T09:57:51;3.03;;;1.55;;
14584;SDS011;7379;51.506;11.876;2022-07-04T10:00:20;2.08;;;1.50;;
14584;SDS011;7379;51.506;11.876;2022-07-04T10:02:49;2.42;;;1.70;;
14584;SDS011;7379;51.506;11.876;2022-07-04T10:05:24;2.00;;;1.58;;
14584;SDS011;7379;51.506;11.876;2022-07-04T10:07:53;1.92;;;1.60;;
14584;SDS011;7379;51.506;11.876;2022-07-04T10:10:24;2.15;;;1.30;;
14584;SDS011;7379;51.506;11.876;2022-07-04T10:12:54;2.83;;;1.70;;
14584;SDS011;7379;51.506;11.876;2022-07-04T10:15:22;2.17;;;1.50;;
14584;SDS011;7379;51.506;11.876;2022-07-04T10:17:49;2.47;;;1.60;;
14584;SDS011;7379;51.506;11.876;2022-07-04T10:20:16;1.58;;;1.33;;
14584;SDS011;7379;51.506;11.876;2022-07-04T10:22:43;1.67;;;1.52;;
14584;SDS011;7379;51.506;11.876;2022-07-04T10:25:10;2.58;;;1.67;;
14584;SDS011;7379;51.506;11.876;2022-07-04T10:27:37;2.78;;;1.35;;
14584;SDS011;7379;51.506;11.876;2022-07-04T10:30:06;1.58;;;1.48;;
14584;SDS011;7379;51.506;11.876;2022-07-04T10:32:36;2.63;;;1.63;;
14584;SDS011;7379;51.506;11.876;2022-07-04T10:35:05;1.98;;;1.60;;
14584;SDS011;7379;51.506;11.876;2022-07-04T10:40:44;2.72;;;1.70;;
14584;SDS011;7379;51.506;11.876;2022-07-04T10:46:23;3.00;;;1.80;;
14584;SDS011;7379;51.506;11.876;2022-07-04T10:48:55;2.20;;;1.77;;
14584;SDS011;7379;51.506;11.876;2022-07-04T10:51:39;2.30;;;1.67;;
14584;SDS011;7379;51.506;11.876;2022-07-04T10:54:08;1.65;;;1.40;;
14584;SDS011;7379;51.506;11.876;2022-07-04T10:56:38;1.92;;;1.55;;
14584;SDS011;7379;51.506;11.876;2022-07-04T10:59:23;2.50;;;1.60;;
14584;SDS011;7379;51.506;11.876;2022-07-04T11:02:20;3.08;;;1.60;;
14584;SDS011;7379;51.506;11.876;2022-07-04T11:04:51;3.58;;;1.52;;
14584;SDS011;7379;51.506;11.876;2022-07-04T11:07:20;3.03;;;1.70;;
14584;SDS011;7379;51.506;11.876;2022-07-04T11:18:41;1.73;;;1.50;;
14584;SDS011;7379;51.506;11.876;2022-07-04T11:21:15;3.22;;;1.70;;
14584;SDS011;7379;51.506;11.876;2022-07-04T11:23:48;2.72;;;1.80;;
14584;SDS011;7379;51.506;11.876;2022-07-04T11:26:16;3.10;;;1.67;;
14584;SDS011;7379;51.506;11.876;2022-07-04T11:28:44;2.10;;;1.55;;
14584;SDS011;7379;51.506;11.876;2022-07-04T11:31:12;2.47;;;1.48;;
14584;SDS011;7379;51.506;11.876;2022-07-04T11:33:41;2.75;;;1.92;;
14584;SDS011;7379;51.506;11.876;2022-07-04T11:36:11;2.78;;;1.58;;
14584;SDS011;7379;51.506;11.876;2022-07-04T11:38:45;2.42;;;1.70;;
14584;SDS011;7379;51.506;11.876;2022-07-04T11:41:16;2.03;;;1.55;;
14584;SDS011;7379;51.506;11.876;2022-07-04T11:44:04;2.38;;;1.63;;
14584;SDS011;7379;51.506;11.876;2022-07-04T11:46:49;2.75;;;1.65;;
14584;SDS011;7379;51.506;11.876;2022-07-04T11:49:17;1.67;;;1.52;;
14584;SDS011;7379;51.506;11.876;2022-07-04T11:51:46;2.28;;;1.67;;
14584;SDS011;7379;51.506;11.876;2022-07-04T11:54:14;2.38;;;1.60;;
14584;SDS011;7379;51.506;11.876;2022-07-04T11:56:41;2.60;;;1.85;;
14584;SDS011;7379;51.506;11.876;2022-07-04T11:59:11;2.22;;;1.55;;
14584;SDS011;7379;51.506;11.876;2022-07-04T12:01:39;2.35;;;1.58;;
14584;SDS011;7379;51.506;11.876;2022-07-04T12:04:13;2.05;;;1.58;;
14584;SDS011;7379;51.506;11.876;2022-07-04T12:06:43;2.65;;;1.90;;
14584;SDS011;7379;51.506;11.876;2022-07-04T12:09:11;1.92;;;1.70;;
14584;SDS011;7379;51.506;11.876;2022-07-04T12:11:49;2.17;;;1.48;;
14584;SDS011;7379;51.506;11.876;2022-07-04T12:14:17;2.15;;;1.70;;
14584;SDS011;7379;51.506;11.876;2022-07-04T12:16:44;2.45;;;1.73;;
14584;SDS011;7379;51.506;11.876;2022-07-04T12:19:12;1.70;;;1.60;;
14584;SDS011;7379;51.506;11.876;2022-07-04T12:21:39;2.03;;;1.80;;
14584;SDS011;7379;51.506;11.876;2022-07-04T12:24:10;1.90;;;1.50;;
14584;SDS011;7379;51.506;11.876;2022-07-04T12:26:45;2.25;;;1.58;;
14584;SDS011;7379;51.506;11.876;2022-07-04T12:29:19;2.47;;;1.50;;
14584;SDS011;7379;51.506;11.876;2022-07-04T12:31:50;2.47;;;1.50;;
14584;SDS011;7379;51.506;11.876;2022-07-04T12:34:19;4.25;;;1.85;;
14584;SDS011;7379;51.506;11.876;2022-07-04T12:36:50;2.67;;;1.63;;
14584;SDS011;7379;51.506;11.876;2022-07-04T12:39:30;2.75;;;1.65;;
14584;SDS011;7379;51.506;11.876;2022-07-04T12:42:04;1.60;;;1.50;;
14584;SDS011;7379;51.506;11.876;2022-07-04T12:44:33;2.95;;;1.55;;
14584;SDS011;7379;51.506;11.876;2022-07-04T12:47:00;2.47;;;1.50;;
14584;SDS011;7379;51.506;11.876;2022-07-04T12:49:27;1.90;;;1.40;;
14584;SDS011;7379;51.506;11.876;2022-07-04T12:52:04;4.05;;;1.60;;
14584;SDS011;7379;51.506;11.876;2022-07-04T12:54:35;2.33;;;1.48;;
14584;SDS011;7379;51.506;11.876;2022-07-04T12:57:07;1.70;;;1.45;;
14584;SDS011;7379;51.506;11.876;2022-07-04T12:59:35;1.75;;;1.50;;
14584;SDS011;7379;51.506;11.876;2022-07-04T13:02:04;1.92;;;1.50;;
14584;SDS011;7379;51.506;11.876;2022-07-04T13:04:31;1.83;;;1.50;;
14584;SDS011;7379;51.506;11.876;2022-07-04T13:06:58;2.88;;;1.52;;
14584;SDS011;7379;51.506;11.876;2022-07-04T13:09:30;1.60;;;1.30;;
14584;SDS011;7379;51.506;11.876;2022-07-04T13:11:57;2.65;;;1.50;;
14584;SDS011;7379;51.506;11.876;2022-07-04T13:14:41;1.83;;;1.38;;
14584;SDS011;7379;51.506;11.876;2022-07-04T13:17:08;1.42;;;1.33;;
14584;SDS011;7379;51.506;11.876;2022-07-04T13:19:35;1.50;;;1.40;;
14584;SDS011;7379;51.506;11.876;2022-07-04T13:22:02;3.20;;;1.40;;
14584;SDS011;7379;51.506;11.876;2022-07-04T13:24:30;3.60;;;1.40;;
14584;SDS011;7379;51.506;11.876;2022-07-04T13:26:57;1.85;;;1.55;;
14584;SDS011;7379;51.506;11.876;2022-07-04T13:29:24;1.88;;;1.30;;
14584;SDS011;7379;51.506;11.876;2022-07-04T13:31:50;1.50;;;1.40;;
14584;SDS011;7379;51.506;11.876;2022-07-04T13:34:17;2.17;;;1.30;;
14584;SDS011;7379;51.506;11.876;2022-07-04T13:36:44;1.52;;;1.42;;
14584;SDS011;7379;51.506;11.876;2022-07-04T13:39:11;1.48;;;1.30;;
14584;SDS011;7379;51.506;11.876;2022-07-04T13:41:40;1.55;;;1.20;;
14584;SDS011;7379;51.506;11.876;2022-07-04T13:44:06;2.13;;;1.50;;
14584;SDS011;7379;51.506;11.876;2022-07-04T13:46:34;3.17;;;1.33;;
14584;SDS011;7379;51.506;11.876;2022-07-04T13:49:01;1.50;;;1.20;;
14584;SDS011;7379;51.506;11.876;2022-07-04T13:51:29;3.00;;;1.23;;
14584;SDS011;7379;51.506;11.876;2022-07-04T13:53:56;1.48;;;1.08;;
14584;SDS011;7379;51.506;11.876;2022-07-04T13:56:22;4.57;;;1.50;;
14584;SDS011;7379;51.506;11.876;2022-07-04T13:58:51;3.75;;;1.40;;
14584;SDS011;7379;51.506;11.876;2022-07-04T14:01:18;1.42;;;1.10;;
14584;SDS011;7379;51.506;11.876;2022-07-04T14:03:45;2.80;;;1.40;;
14584;SDS011;7379;51.506;11.876;2022-07-04T14:06:12;1.48;;;1.10;;
14584;SDS011;7379;51.506;11.876;2022-07-04T14:08:39;3.35;;;1.50;;
14584;SDS011;7379;51.506;11.876;2022-07-04T14:11:06;1.42;;;1.33;;
14584;SDS011;7379;51.506;11.876;2022-07-04T14:13:33;2.75;;;1.20;;
14584;SDS011;7379;51.506;11.876;2022-07-04T14:16:01;1.48;;;1.15;;
14584;SDS011;7379;51.506;11.876;2022-07-04T14:18:30;2.55;;;1.25;;
14584;SDS011;7379;51.506;11.876;2022-07-04T14:20:57;1.25;;;1.15;;
14584;SDS011;7379;51.506;11.876;2022-07-04T14:23:24;1.52;;;1.40;;
14584;SDS011;7379;51.506;11.876;2022-07-04T14:26:11;1.48;;;1.20;;
14584;SDS011;7379;51.506;11.876;2022-07-04T14:28:39;1.58;;;1.30;;
14584;SDS011;7379;51.506;11.876;2022-07-04T14:31:08;2.20;;;1.30;;
14584;SDS011;7379;51.506;11.876;2022-07-04T14:33:35;1.35;;;1.25;;
14584;SDS011;7379;51.506;11.876;2022-07-04T14:36:02;1.92;;;1.30;;
14584;SDS011;7379;51.506;11.876;2022-07-04T14:38:31;1.40;;;1.25;;
14584;SDS011;7379;51.506;11.876;2022-07-04T14:40:58;1.92;;;1.27;;
14584;SDS011;7379;51.506;11.876;2022-07-04T14:43:35;2.15;;;1.27;;
14584;SDS011;7379;51.506;11.876;2022-07-04T14:46:03;1.63;;;1.27;;
14584;SDS011;7379;51.506;11.876;2022-07-04T14:48:31;2.17;;;1.27;;
14584;SDS011;7379;51.506;11.876;2022-07-04T14:50:58;1.58;;;1.30;;
14584;SDS011;7379;51.506;11.876;2022-07-04T14:53:25;1.33;;;1.20;;
14584;SDS011;7379;51.506;11.876;2022-07-04T14:55:52;1.83;;;1.15;;
14584;SDS011;7379;51.506;11.876;2022-07-04T14:58:19;1.58;;;1.30;;
14584;SDS011;7379;51.506;11.876;2022-07-04T15:00:46;1.30;;;1.20;;
14584;SDS011;7379;51.506;11.876;2022-07-04T15:03:13;1.58;;;1.20;;
14584;SDS011;7379;51.506;11.876;2022-07-04T15:05:42;1.25;;;1.15;;
14584;SDS011;7379;51.506;11.876;2022-07-04T15:08:09;1.75;;;1.17;;
14584;SDS011;7379;51.506;11.876;2022-07-04T15:10:36;1.17;;;1.08;;